Time;durP1;ratioP1;P1;durP2;ratioP2;P2;SDS_P1;SDS_P2;PMS_P1;PMS_P2;Temp;Humidity;BMP_temperature;BMP_pressure;BME280_temperature;BME280_humidity;BME280_pressure;Samples;Min_cycle;Max_cycle;Signal;HPM_P1;HPM_P2
2022/06/08 03:49:28;;;;;;;;;4.00;3.33;;;;;16.88;100.00;99108.63;4854425;29;44854;-96
2022/06/08 03:52:01;;;;;;;;;7.33;2.33;;;;;16.72;100.00;99084.88;4796311;29;44895;-96
2022/06/08 03:54:32;;;;;;;;;2.33;2.00;;;;;16.67;100.00;99084.03;4796686;29;47605;-94
2022/06/08 03:57:07;;;;;;;;;2.00;2.00;;;;;16.70;100.00;99091.97;4770491;29;45518;-96
2022/06/08 03:59:40;;;;;;;;;3.33;2.00;;;;;16.56;100.00;99062.91;4782673;29;45532;-96
2022/06/08 04:02:09;;;;;;;;;4.33;3.00;;;;;16.51;100.00;99053.22;4781977;29;44878;-96
2022/06/08 04:04:37;;;;;;;;;6.00;3.00;;;;;16.63;100.00;99065.50;4796316;29;47341;-95
2022/06/08 04:07:07;;;;;;;;;7.00;3.00;;;;;16.58;100.00;99050.53;4796805;29;46134;-96
2022/06/08 04:10:22;;;;;;;;;;;;;;;;;;;;;
2022/06/08 04:12:48;;;;;;;;;4.67;3.00;;;;;16.53;100.00;99030.25;4793444;29;44911;-96
2022/06/08 04:16:03;;;;;;;;;1.00;1.00;;;;;16.59;100.00;99042.59;4784592;29;47101;-96
2022/06/08 04:18:51;;;;;;;;;3.67;2.00;;;;;16.48;100.00;99008.22;4783220;29;44849;-96
2022/06/08 04:38:02;;;;;;;;;3.33;3.00;;;;;16.52;100.00;99003.75;5184565;23;45432;-95
2022/06/08 04:40:30;;;;;;;;;4.00;3.00;;;;;16.64;100.00;99019.59;4982874;28;47308;-96
2022/06/08 04:43:07;;;;;;;;;4.33;2.33;;;;;16.64;100.00;99008.13;4970096;28;45546;-96
2022/06/08 04:45:37;;;;;;;;;4.33;3.00;;;;;16.63;100.00;98999.28;4952987;28;45469;-96
2022/06/08 04:48:16;;;;;;;;;;;;;;;;;;;;;
2022/06/08 04:50:42;;;;;;;;;5.00;4.67;;;;;16.58;100.00;99008.16;4991476;28;75179;-94
2022/06/08 04:53:08;;;;;;;;;3.00;1.33;;;;;16.49;100.00;98990.56;4985538;28;45337;-95
2022/06/08 04:55:33;;;;;;;;;2.67;2.33;;;;;16.55;100.00;99003.75;4988152;28;45424;-95
2022/06/08 04:58:01;;;;;;;;;3.33;2.00;;;;;16.57;100.00;99015.19;4995149;28;44868;-94
2022/06/08 05:00:30;;;;;;;;;4.00;3.33;;;;;16.50;100.00;99011.72;5003911;28;47276;-95
2022/06/08 05:02:57;;;;;;;;;6.33;4.00;;;;;16.41;100.00;98990.63;4987195;28;45480;-95
2022/06/08 05:05:36;;;;;;;;;3.33;3.33;;;;;16.47;100.00;98995.84;4977882;28;44794;-95
2022/06/08 05:08:03;;;;;;;;;3.67;2.33;;;;;16.42;100.00;98973.81;4988339;28;44888;-95
2022/06/08 05:10:36;;;;;;;;;3.33;3.33;;;;;16.48;100.00;98991.44;5003793;28;45806;-95
2022/06/08 05:13:02;;;;;;;;;2.00;2.00;;;;;16.45;100.00;98975.56;4988744;28;45748;-95
2022/06/08 05:15:35;;;;;;;;;3.00;3.00;;;;;16.39;100.00;98958.84;4991353;28;45456;-95
2022/06/08 05:18:01;;;;;;;;;5.33;2.67;;;;;16.49;100.00;98982.63;4990809;28;45234;-96
2022/06/08 05:20:30;;;;;;;;;2.00;2.00;;;;;16.36;100.00;98963.31;4990525;28;48387;-96
2022/06/08 05:22:56;;;;;;;;;4.67;2.33;;;;;16.31;100.00;98953.59;4990279;28;45506;-96
2022/06/08 05:25:31;;;;;;;;;2.00;2.00;;;;;16.44;100.00;98977.34;5012782;28;45715;-96
2022/06/08 05:27:58;;;;;;;;;2.00;2.00;;;;;16.42;100.00;98966.78;4960623;28;45481;-96
2022/06/08 05:30:28;;;;;;;;;2.00;2.00;;;;;16.52;100.00;98986.13;5008569;28;47258;-93
2022/06/08 05:32:56;;;;;;;;;1.00;1.00;;;;;16.46;100.00;98978.22;4982955;28;45544;-95
2022/06/08 05:35:23;;;;;;;;;2.33;1.67;;;;;16.40;100.00;98960.63;4971833;28;45386;-95
2022/06/08 05:37:53;;;;;;;;;3.00;1.00;;;;;16.48;100.00;98972.91;4989036;28;45471;-95
2022/06/08 05:40:22;;;;;;;;;1.67;1.67;;;;;16.42;100.00;98964.13;4988864;28;45472;-95
2022/06/08 05:42:50;;;;;;;;;3.33;1.00;;;;;16.42;100.00;98958.81;4968709;28;45441;-95
2022/06/08 05:45:22;;;;;;;;;3.00;3.00;;;;;16.45;100.00;98963.22;4979226;28;45251;-94
2022/06/08 05:47:47;;;;;;;;;1.00;1.00;;;;;16.57;100.00;98971.97;4969918;28;45488;-95
2022/06/08 05:50:16;;;;;;;;;0.33;0.33;;;;;16.62;100.00;98984.25;4985444;28;47091;-95
2022/06/08 05:52:41;;;;;;;;;1.00;1.00;;;;;16.52;100.00;98970.22;4971679;28;45592;-95
2022/06/08 05:55:12;;;;;;;;;1.33;1.33;;;;;16.47;100.00;98966.72;4971556;28;45308;-93
2022/06/08 05:57:38;;;;;;;;;1.67;1.67;;;;;16.45;100.00;98965.88;4988335;28;44972;-95
2022/06/08 06:00:14;;;;;;;;;2.00;1.00;;;;;16.34;100.00;98957.16;4988135;28;48154;-95
2022/06/08 06:02:42;;;;;;;;;1.00;1.00;;;;;16.38;100.00;98964.16;4971027;28;46234;-95
2022/06/08 06:05:11;;;;;;;;;1.00;1.00;;;;;16.44;100.00;98990.56;4975263;28;45499;-95
2022/06/08 06:07:41;;;;;;;;;2.67;1.67;;;;;16.39;100.00;98982.66;4990612;28;45319;-95
2022/06/08 06:10:09;;;;;;;;;1.00;1.00;;;;;16.34;100.00;98976.53;4989928;28;46126;-94
2022/06/08 06:12:38;;;;;;;;;1.00;1.00;;;;;16.36;100.00;98987.13;4988096;28;45440;-95
2022/06/08 06:15:08;;;;;;;;;3.67;3.00;;;;;16.41;100.00;98990.63;4987746;28;44779;-95
2022/06/08 06:17:34;;;;;;;;;1.00;1.00;;;;;16.40;100.00;98996.78;4988001;28;45567;-95
2022/06/08 06:20:03;;;;;;;;;2.00;0.33;;;;;16.39;100.00;98987.97;4993357;28;48355;-95
2022/06/08 06:22:33;;;;;;;;;1.00;1.00;;;;;16.37;100.00;99000.34;5005008;28;45960;-92
2022/06/08 06:25:27;;;;;;;;;0.33;0.00;;;;;16.33;100.00;98979.19;4987418;28;45349;-94
2022/06/08 06:30:40;;;;;;;;;1.00;1.00;;;;;16.43;100.00;98999.44;4986142;28;45514;-95
2022/06/08 06:33:05;;;;;;;;;1.00;1.00;;;;;16.41;100.00;98998.56;4986520;28;45373;-94
2022/06/08 06:35:30;;;;;;;;;1.33;0.33;;;;;16.44;100.00;99005.63;4984802;28;45483;-94
2022/06/08 06:37:56;;;;;;;;;1.00;0.00;;;;;16.46;100.00;99006.47;4986633;28;45645;-95
2022/06/08 06:40:22;;;;;;;;;0.00;0.00;;;;;16.48;100.00;99005.56;4987587;28;45494;-94
2022/06/08 06:42:48;;;;;;;;;2.00;0.33;;;;;16.48;100.00;99002.94;4987457;28;45460;-93
2022/06/08 06:45:16;;;;;;;;;0.00;0.00;;;;;16.46;100.00;99004.72;4993832;28;45293;-93
2022/06/08 06:47:42;;;;;;;;;1.00;1.00;;;;;16.45;100.00;99002.06;4978401;28;45371;-93
2022/06/08 06:50:10;;;;;;;;;0.00;0.00;;;;;16.45;100.00;99005.59;4998558;28;48297;-93
2022/06/08 06:52:35;;;;;;;;;1.00;1.00;;;;;16.44;100.00;99017.06;4999667;28;45076;-92
2022/06/08 06:55:00;;;;;;;;;0.67;0.67;;;;;16.46;100.00;99014.41;4983417;28;45512;-92
2022/06/08 06:57:26;;;;;;;;;2.00;1.00;;;;;16.45;100.00;99020.59;4981966;28;45364;-91
2022/06/08 06:59:51;;;;;;;;;1.67;1.00;;;;;16.46;100.00;99017.94;4986629;28;45388;-92
2022/06/08 07:02:20;;;;;;;;;1.33;0.00;;;;;16.44;100.00;99010.91;4982296;28;45501;-91
2022/06/08 07:04:47;;;;;;;;;0.00;0.00;;;;;16.46;100.00;99017.06;4980740;28;45357;-91
2022/06/08 07:07:13;;;;;;;;;1.00;1.00;;;;;16.45;100.00;99023.25;4982066;28;45302;-91
2022/06/08 07:09:39;;;;;;;;;0.00;0.00;;;;;16.48;100.00;99025.88;4980228;28;45608;-92
2022/06/08 07:12:06;;;;;;;;;0.33;0.00;;;;;16.49;100.00;99019.69;4980089;28;45356;-92
2022/06/08 07:14:32;;;;;;;;;0.67;0.67;;;;;16.52;100.00;99023.19;4978802;28;45435;-92
2022/06/08 07:16:58;;;;;;;;;2.00;0.67;;;;;16.54;100.00;99023.19;4964934;28;45693;-90
2022/06/08 07:19:23;;;;;;;;;0.00;0.00;;;;;16.54;100.00;99023.19;4988500;28;46744;-91
2022/06/08 07:21:49;;;;;;;;;3.00;1.00;;;;;16.56;100.00;99032.00;4984978;28;45538;-92
2022/06/08 07:24:20;;;;;;;;;3.67;1.00;;;;;16.56;100.00;99032.00;5000445;28;45221;-93
2022/06/08 07:26:47;;;;;;;;;3.00;2.00;;;;;16.64;100.00;99030.19;4971892;28;45442;-93
2022/06/08 07:29:13;;;;;;;;;0.00;0.00;;;;;16.66;100.00;99027.50;4975399;28;46745;-92
2022/06/08 07:31:39;;;;;;;;;0.00;0.00;;;;;16.75;100.00;99043.31;4979962;28;46529;-92
2022/06/08 07:34:05;;;;;;;;;0.00;0.00;;;;;16.81;100.00;99034.47;4991290;28;47407;-93
2022/06/08 07:36:30;;;;;;;;;0.00;0.00;;;;;16.86;100.00;99029.13;4982646;28;45531;-94
2022/06/08 07:38:56;;;;;;;;;1.33;0.00;;;;;16.92;100.00;99037.03;4995469;28;46254;-93
2022/06/08 07:41:22;;;;;;;;;3.00;0.67;;;;;16.99;100.00;99027.25;4989284;28;45482;-93
2022/06/08 07:43:47;;;;;;;;;0.00;0.00;;;;;17.10;100.00;99029.81;4988928;28;45603;-92
2022/06/08 07:46:13;;;;;;;;;1.00;0.00;;;;;17.20;100.00;99015.59;4981491;28;60443;-94
2022/06/08 07:51:23;;;;;;;;;0.33;0.00;;;;;17.35;100.00;99023.41;4992223;28;45603;-93
2022/06/08 07:53:48;;;;;;;;;0.00;0.00;;;;;17.40;100.00;99016.28;4972647;28;45450;-91
2022/06/08 07:56:13;;;;;;;;;1.00;0.00;;;;;17.44;100.00;99017.13;4972512;28;45645;-92
2022/06/08 07:58:40;;;;;;;;;0.00;0.00;;;;;17.50;100.00;99019.69;4985907;28;46562;-95
2022/06/08 08:01:06;;;;;;;;;0.00;0.00;;;;;17.60;100.00;99020.50;4997023;28;45496;-94
2022/06/08 08:03:31;;;;;;;;;0.00;0.00;;;;;17.71;100.00;99018.59;4978134;28;45350;-92
2022/06/08 08:05:57;;;;;;;;;1.00;0.00;;;;;17.76;100.00;99008.78;4996328;28;45545;-94
2022/06/08 08:08:22;;;;;;;;;0.00;0.00;;;;;17.84;100.00;99007.81;4990266;28;45517;-90
2022/06/08 08:10:48;;;;;;;;;1.00;1.00;;;;;17.90;100.00;98999.78;4972805;28;45477;-91
2022/06/08 08:13:14;;;;;;;;;0.00;0.00;;;;;17.94;100.00;98993.53;4984729;28;45713;-93
2022/06/08 08:15:42;;;;;;;;;0.00;0.00;;;;;17.99;100.00;99001.44;4983892;28;45503;-93
2022/06/08 08:18:08;;;;;;;;;0.00;0.00;;;;;18.07;100.00;98999.56;5009692;28;45314;-91
2022/06/08 08:20:34;;;;;;;;;2.33;0.00;;;;;18.23;100.00;99004.69;4995068;28;45279;-93
2022/06/08 08:23:00;;;;;;;;;0.00;0.00;;;;;18.42;100.00;99000.00;5014837;28;45518;-94
2022/06/08 08:25:26;;;;;;;;;0.00;0.00;;;;;18.57;100.00;98983.81;5002659;28;45421;-92
2022/06/08 08:27:53;;;;;;;;;0.33;0.33;;;;;18.70;100.00;98980.06;4983052;28;47056;-93
2022/06/08 08:30:22;;;;;;;;;0.67;0.00;;;;;18.78;100.00;98965.75;4972494;28;45407;-93
2022/06/08 08:32:48;;;;;;;;;0.00;0.00;;;;;18.91;100.00;98963.78;4984164;28;45408;-93
2022/06/08 08:35:16;;;;;;;;;1.00;1.00;;;;;18.96;100.00;98961.91;4995380;28;45417;-91
2022/06/08 08:37:43;;;;;;;;;0.67;0.67;;;;;19.06;100.00;98962.59;4978007;28;47176;-91
2022/06/08 08:40:27;;;;;;;;;0.00;0.00;;;;;19.15;100.00;98964.19;4998698;28;45280;-93
2022/06/08 08:42:53;;;;;;;;;0.00;0.00;;;;;19.23;100.00;98961.44;4999348;28;45491;-95
2022/06/08 08:45:19;;;;;;;;;0.00;0.00;;;;;19.30;100.00;98963.09;4986774;28;45447;-94
2022/06/08 08:48:00;;;;;;;;;0.00;0.00;;;;;19.43;100.00;98964.56;5007858;28;46097;-91
2022/06/08 08:50:37;;;;;;;;;0.00;0.00;;;;;19.53;100.00;98964.41;4992894;28;45454;-95
2022/06/08 08:53:07;;;;;;;;;2.00;0.00;;;;;19.55;100.00;98965.25;4972725;28;45513;-93
2022/06/08 08:55:32;;;;;;;;;0.00;0.00;;;;;19.56;100.00;98964.31;4984845;28;45594;-93
2022/06/08 08:58:12;;;;;;;;;0.00;0.00;;;;;19.58;100.00;98964.31;4974270;28;46694;-91
2022/06/08 09:00:51;;;;;;;;;0.33;0.33;;;;;19.62;100.00;98980.19;4984654;28;45334;-93
2022/06/08 09:03:26;;;;;;;;;0.00;0.00;;;;;19.71;100.00;98976.47;4999378;28;45535;-91
2022/06/08 09:05:55;;;;;;;;;0.00;0.00;;;;;19.72;100.00;98964.88;5006093;28;45552;-92
2022/06/08 09:08:23;;;;;;;;;0.00;0.00;;;;;19.72;100.00;98967.56;5002541;28;46285;-92
2022/06/08 09:10:50;;;;;;;;;0.00;0.00;;;;;19.76;100.00;98965.72;5005001;28;45457;-92
2022/06/08 09:13:22;;;;;;;;;0.00;0.00;;;;;19.95;100.00;98975.94;4978669;28;45358;-90
2022/06/08 09:15:49;;;;;;;;;0.67;0.00;;;;;20.06;100.00;98971.25;4985748;28;45404;-90
2022/06/08 09:18:35;;;;;;;;;1.33;0.00;;;;;20.16;100.00;98985.28;4999196;28;46585;-91
2022/06/08 09:21:19;;;;;;;;;1.00;1.00;;;;;20.21;100.00;98970.06;5011808;28;45858;-89
2022/06/08 09:23:45;;;;;;;;;0.00;0.00;;;;;20.37;100.00;98991.03;4983979;28;45448;-89
2022/06/08 09:26:26;;;;;;;;;0.67;0.67;;;;;20.69;100.00;98967.19;4979732;28;45502;-88
2022/06/08 09:29:14;;;;;;;;;1.00;1.00;;;;;21.06;100.00;98937.78;4978272;28;45557;-91
2022/06/08 09:31:40;;;;;;;;;1.00;1.00;;;;;21.19;100.00;98947.22;4984375;28;45719;-90
2022/06/08 09:34:26;;;;;;;;;1.00;1.00;;;;;21.31;100.00;98953.16;4988707;28;45410;-91
2022/06/08 09:37:13;;;;;;;;;2.33;1.00;;;;;21.50;100.00;98952.59;4978536;28;45458;-89
2022/06/08 09:39:44;;;;;;;;;1.00;1.00;;;;;21.68;100.00;98942.28;4961970;28;48080;-90
2022/06/08 09:42:28;;;;;;;;;2.00;2.00;;;;;22.12;100.00;98933.00;4991137;28;45419;-92
2022/06/08 09:45:04;;;;;;;;;1.00;1.00;;;;;22.53;100.00;98936.13;4992488;28;45568;-93
2022/06/08 09:53:52;;;;;;;;;0.00;0.00;;;;;24.29;100.00;98883.34;4987633;28;45447;-92
2022/06/08 09:56:36;;;;;;;;;2.00;2.00;;;;;24.27;100.00;98883.44;4987972;28;45442;-91
2022/06/08 09:59:10;;;;;;;;;1.00;1.00;;;;;24.96;100.00;98909.16;4975099;28;45490;-92
2022/06/08 10:01:42;;;;;;;;;1.00;1.00;;;;;25.82;100.00;98918.75;4988558;28;45693;-89
2022/06/08 10:04:16;;;;;;;;;1.00;1.00;;;;;25.80;100.00;98855.31;4991608;28;45487;-89
2022/06/08 10:07:17;;;;;;;;;6.00;4.00;;;;;25.25;100.00;98873.91;4973853;28;45839;-92
2022/06/08 10:09:58;;;;;;;;;1.00;1.00;;;;;24.40;100.00;98882.91;4982248;28;45381;-90
2022/06/08 10:12:29;;;;;;;;;4.00;3.00;;;;;23.62;100.00;98911.84;4969767;28;47900;-93
2022/06/08 10:15:20;;;;;;;;;1.00;1.00;;;;;22.86;100.00;98926.13;4970824;28;45563;-93
2022/06/08 10:17:53;;;;;;;;;5.00;2.00;;;;;22.16;100.00;98926.66;4988012;28;45605;-91
2022/06/08 10:20:41;;;;;;;;;4.00;2.00;;;;;21.58;100.00;98947.91;4990430;28;45596;-90
2022/06/08 10:23:35;;;;;;;;;2.00;2.00;;;;;21.09;100.00;98935.94;4990135;28;46570;-92
2022/06/08 10:26:12;;;;;;;;;2.00;2.00;;;;;20.68;100.00;98941.41;4984135;28;45462;-91
2022/06/08 10:28:46;;;;;;;;;1.00;1.00;;;;;20.42;100.00;98945.59;4981974;28;45461;-89
2022/06/08 10:31:34;;;;;;;;;2.33;2.00;;;;;20.22;100.00;98954.97;4974345;28;46053;-90
2022/06/08 10:34:23;;;;;;;;;1.00;1.00;;;;;20.20;100.00;98972.78;4991424;28;45701;-90
2022/06/08 10:36:53;;;;;;;;;2.00;2.00;;;;;20.46;100.00;98984.59;4993317;28;45495;-93
2022/06/08 10:39:19;;;;;;;;;2.33;1.67;;;;;20.84;100.00;98978.34;4984156;28;45682;-90
2022/06/08 10:44:50;;;;;;;;;2.00;2.00;;;;;24.18;100.00;98974.88;4989237;28;45695;-93
2022/06/08 10:47:39;;;;;;;;;5.67;4.33;;;;;26.67;100.00;98863.56;4986530;28;45484;-91
2022/06/08 10:50:04;;;;;;;;;4.00;4.00;;;;;26.72;100.00;98882.16;4983757;28;45781;-91
2022/06/08 10:52:47;;;;;;;;;3.00;3.00;;;;;26.23;100.00;98890.78;4986704;28;45529;-88
2022/06/08 10:55:18;;;;;;;;;2.00;2.00;;;;;25.54;100.00;98914.63;4989079;28;47148;-90
2022/06/08 10:57:49;;;;;;;;;3.00;3.00;;;;;25.06;100.00;98939.16;4989154;28;45527;-89
2022/06/08 11:00:18;;;;;;;;;3.33;2.00;;;;;24.51;100.00;98945.00;4990454;28;45301;-90
2022/06/08 11:02:46;;;;;;;;;1.67;1.67;;;;;24.23;100.00;98972.91;4991555;28;45312;-89
2022/06/08 11:05:18;;;;;;;;;3.33;3.33;;;;;24.28;100.00;98960.22;4984794;28;52439;-90
2022/06/08 11:07:58;;;;;;;;;4.00;3.00;;;;;24.33;100.00;98970.75;4972270;28;45303;-91
2022/06/08 11:10:48;;;;;;;;;3.00;3.00;;;;;26.16;100.00;98921.59;4970610;28;45898;-89
2022/06/08 11:13:26;;;;;;;;;3.00;2.00;;;;;26.17;100.00;98941.31;4964550;28;45366;-92
2022/06/08 11:16:00;;;;;;;;;8.33;4.33;;;;;25.92;100.00;98954.13;4992590;28;45595;-91
2022/06/08 11:18:31;;;;;;;;;8.00;3.33;;;;;25.65;100.00;98959.81;4991970;28;45512;-91
2022/06/08 11:21:37;;;;;;;;;3.67;3.00;;;;;25.17;100.00;98984.31;4970850;28;45453;-92
2022/06/08 11:24:17;;;;;;;;;2.00;2.00;;;;;24.83;100.00;98992.84;4971762;28;45477;-92
2022/06/08 11:26:53;;;;;;;;;4.00;3.00;;;;;25.07;100.00;98989.22;4992079;28;45539;-90
2022/06/08 11:29:18;;;;;;;;;3.33;3.33;;;;;25.22;100.00;98983.19;4969810;28;45456;-90
2022/06/08 11:31:44;;;;;;;;;2.00;2.00;;;;;25.26;100.00;98969.59;4967976;28;45677;-90
2022/06/08 11:34:18;;;;;;;;;1.67;1.67;;;;;25.08;100.00;98967.69;4972410;28;45542;-92
2022/06/08 11:36:53;;;;;;;;;3.00;2.00;;;;;24.70;100.00;98964.81;4958905;28;47529;-95
2022/06/08 11:39:31;;;;;;;;;2.00;2.00;;;;;24.30;100.00;98974.44;4971963;28;45466;-94
2022/06/08 11:41:59;;;;;;;;;4.00;2.00;;;;;23.84;100.00;98985.13;4973031;28;45817;-94
2022/06/08 11:44:31;;;;;;;;;4.00;3.33;;;;;23.48;100.00;99000.69;4969672;28;45584;-93
2022/06/08 11:47:03;;;;;;;;;2.33;2.33;;;;;23.18;100.00;99019.59;4972437;28;46191;-93
2022/06/08 11:49:37;;;;;;;;;3.00;3.00;;;;;23.10;100.00;99017.19;4964194;28;45453;-91
2022/06/08 11:52:18;;;;;;;;;2.67;2.67;;;;;23.07;100.00;99026.19;4972751;28;45434;-91
2022/06/08 11:54:43;;;;;;;;;3.00;3.00;;;;;23.48;100.00;99034.59;4969358;28;45912;-92
2022/06/08 11:57:18;;;;;;;;;5.00;3.33;;;;;24.43;100.00;99008.81;4972758;28;45689;-92
2022/06/08 11:59:45;;;;;;;;;1.00;1.00;;;;;26.04;100.00;98992.09;4973115;28;45803;-91
2022/06/08 12:02:24;;;;;;;;;1.67;1.67;;;;;27.28;100.00;98951.94;4979394;28;45397;-90
2022/06/08 12:04:57;;;;;;;;;1.00;1.00;;;;;28.30;100.00;98929.34;4998770;28;46983;-92
2022/06/08 12:07:51;;;;;;;;;1.00;1.00;;;;;29.97;100.00;98885.94;4993933;28;45521;-93
2022/06/08 12:10:21;;;;;;;;;2.00;2.00;;;;;31.19;100.00;98920.28;4975765;28;45334;-92
2022/06/08 12:12:48;;;;;;;;;5.00;3.00;;;;;31.69;100.00;98961.13;4965175;28;45792;-91
2022/06/08 12:15:44;;;;;;;;;1.00;1.00;;;;;31.97;100.00;98965.41;4973133;28;45483;-93
2022/06/08 12:18:19;;;;;;;;;1.00;1.00;;;;;33.25;100.00;98953.28;4969049;28;46590;-90
2022/06/08 12:20:44;;;;;;;;;1.00;1.00;;;;;33.55;100.00;98968.16;4966057;28;46174;-94
2022/06/08 12:23:10;;;;;;;;;4.33;4.00;;;;;35.50;100.00;98900.31;4966416;28;45777;-92
2022/06/08 12:25:35;;;;;;;;;1.67;1.67;;;;;37.38;100.00;98924.06;4971518;28;45679;-93
2022/06/08 12:28:18;;;;;;;;;19.67;9.33;;;;;40.01;100.00;98931.44;4973109;28;48432;-93
2022/06/08 12:30:43;;;;;;;;;6.33;2.33;;;;;42.23;100.00;98957.28;4970347;28;45365;-92
2022/06/08 12:33:16;;;;;;;;;2.67;2.00;;;;;43.54;100.00;99262.97;4963053;28;45539;-92
2022/06/08 12:35:53;;;;;;;;;3.33;1.33;;;;;44.69;100.00;100077.25;4973057;28;45380;-93
2022/06/08 12:38:31;;;;;;;;;3.00;2.00;;;;;44.88;100.00;100199.72;4981896;28;48249;-91
2022/06/08 12:41:02;;;;;;;;;8.00;3.00;;;;;44.26;100.00;100210.94;4973279;28;45868;-94
2022/06/08 12:43:41;;;;;;;;;2.00;1.00;;;;;44.36;100.00;100198.88;4976579;28;45371;-94
2022/06/08 12:46:13;;;;;;;;;0.00;0.00;;;;;45.67;100.00;100153.13;4964457;28;45496;-94
2022/06/08 12:48:38;;;;;;;;;1.67;1.33;;;;;47.05;100.00;100248.22;4964137;28;45549;-94
2022/06/08 12:51:22;;;;;;;;;0.33;0.00;;;;;48.99;92.19;100414.94;4972767;28;45384;-92
2022/06/08 12:53:47;;;;;;;;;0.00;0.00;;;;;49.34;87.87;100428.19;4980060;28;45251;-92
2022/06/08 12:56:13;;;;;;;;;1.00;0.00;;;;;46.66;71.96;100480.34;4976696;28;45560;-93
2022/06/08 12:58:38;;;;;;;;;0.00;0.00;;;;;45.43;74.49;100466.03;4968095;28;48026;-93
2022/06/08 13:01:04;;;;;;;;;0.00;0.00;;;;;44.05;76.84;100449.03;4994010;28;45445;-94
2022/06/08 13:03:29;;;;;;;;;0.00;0.00;;;;;44.37;75.80;100453.16;5011744;28;45244;-90
2022/06/08 13:05:56;;;;;;;;;0.67;0.00;;;;;42.63;74.53;100453.72;4986701;28;45713;-92
2022/06/08 13:08:25;;;;;;;;;2.00;1.00;;;;;40.09;74.58;100449.72;4984182;28;45324;-93
2022/06/08 13:10:53;;;;;;;;;1.00;1.00;;;;;37.57;77.40;100421.91;4958696;28;45914;-94
2022/06/08 13:13:22;;;;;;;;;1.67;0.00;;;;;35.49;81.81;100334.25;4973703;28;45330;-93
2022/06/08 13:15:48;;;;;;;;;0.67;0.00;;;;;33.85;83.24;100293.63;4977770;28;45579;-90
2022/06/08 13:18:18;;;;;;;;;2.00;1.00;;;;;32.36;86.54;100179.75;4977722;28;47462;-94
2022/06/08 13:20:44;;;;;;;;;0.67;0.67;;;;;31.03;90.73;100033.91;4980724;28;45415;-95
2022/06/08 13:23:10;;;;;;;;;2.00;0.00;;;;;29.88;91.49;99979.97;4975985;28;45654;-94
2022/06/08 13:25:36;;;;;;;;;2.00;2.00;;;;;28.96;93.78;99919.28;4975614;28;45577;-93
2022/06/08 13:28:22;;;;;;;;;0.00;0.00;;;;;28.03;95.53;99799.13;4985849;28;47607;-94
2022/06/08 13:30:52;;;;;;;;;1.00;1.00;;;;;27.27;100.00;99557.97;4959881;28;45410;-93
2022/06/08 13:36:18;;;;;;;;;1.33;0.33;;;;;26.20;100.00;99460.97;4956159;28;45446;-94
2022/06/08 13:38:46;;;;;;;;;0.33;0.33;;;;;25.98;100.00;99555.03;4954432;28;48401;-95
2022/06/08 13:41:12;;;;;;;;;1.00;1.00;;;;;25.82;100.00;99538.63;4955787;28;45776;-96
2022/06/08 13:43:39;;;;;;;;;1.33;0.33;;;;;26.91;100.00;99436.53;4968825;28;45388;-96
2022/06/08 13:46:08;;;;;;;;;1.33;1.33;;;;;30.38;100.00;99228.84;4944223;28;45260;-95
2022/06/08 13:48:34;;;;;;;;;1.67;1.00;;;;;31.72;100.00;99395.66;4951494;28;46205;-94
2022/06/08 13:51:00;;;;;;;;;0.00;0.00;;;;;31.85;100.00;99679.66;4950625;28;45752;-94
2022/06/08 13:53:29;;;;;;;;;1.00;1.00;;;;;32.03;100.00;99798.88;4966290;28;45500;-93
2022/06/08 13:55:58;;;;;;;;;1.67;0.67;;;;;32.45;100.00;99808.09;4959220;28;45655;-94
2022/06/08 13:58:24;;;;;;;;;0.67;0.00;;;;;32.33;96.21;99988.03;4959017;28;47312;-95
2022/06/08 14:00:56;;;;;;;;;3.00;3.00;;;;;31.47;100.00;99868.09;4953012;28;46010;-93
2022/06/08 14:03:32;;;;;;;;;5.00;2.00;;;;;30.39;100.00;99724.00;4956030;28;45562;-95
2022/06/08 14:14:18;;;;;;;;;4.67;3.33;;;;;26.87;100.00;99500.41;4960015;28;45409;-95
2022/06/08 14:16:57;;;;;;;;;2.00;0.00;;;;;26.76;100.00;99405.78;4957489;28;45519;-94
2022/06/08 14:19:34;;;;;;;;;1.33;0.67;;;;;27.09;100.00;99284.06;4958628;28;45634;-95
2022/06/08 14:22:07;;;;;;;;;1.00;1.00;;;;;28.84;100.00;99187.19;4956809;28;46007;-96
2022/06/08 14:24:38;;;;;;;;;2.00;0.33;;;;;32.32;100.00;99169.19;4956531;28;45496;-96
2022/06/08 14:27:05;;;;;;;;;1.00;0.00;;;;;35.76;100.00;99232.69;4954970;28;45512;-92
2022/06/08 14:29:31;;;;;;;;;2.33;2.00;;;;;37.16;100.00;99382.84;4964032;28;47293;-92
2022/06/08 14:31:59;;;;;;;;;3.33;1.33;;;;;39.46;100.00;99416.59;4975066;28;45575;-94
2022/06/08 14:34:33;;;;;;;;;2.00;1.00;;;;;41.61;100.00;100055.59;4974180;28;45591;-93
2022/06/08 14:37:01;;;;;;;;;1.33;0.00;;;;;43.24;98.34;100281.34;4992108;28;49649;-96
2022/06/08 14:39:30;;;;;;;;;2.00;1.67;;;;;43.63;94.52;100343.69;4970711;28;48260;-94
2022/06/08 14:41:57;;;;;;;;;0.00;0.00;;;;;41.72;86.38;100429.13;4964754;28;45633;-91
2022/06/08 14:44:23;;;;;;;;;1.00;1.00;;;;;39.38;84.17;100435.47;4959355;28;45472;-94
2022/06/08 14:46:52;;;;;;;;;1.33;0.33;;;;;37.39;86.23;100388.59;4971460;28;46573;-94
2022/06/08 14:49:26;;;;;;;;;1.00;1.00;;;;;35.73;85.14;100366.34;4972808;28;47562;-95
2022/06/08 14:51:55;;;;;;;;;1.33;1.00;;;;;34.29;90.33;100201.09;4970573;28;45287;-93
2022/06/08 14:54:23;;;;;;;;;0.00;0.00;;;;;32.98;88.73;100229.72;4985921;28;45400;-92
2022/06/08 14:57:00;;;;;;;;;1.33;1.00;;;;;31.88;87.34;100251.88;4972534;28;45600;-93
2022/06/08 14:59:26;;;;;;;;;1.00;1.00;;;;;31.11;90.97;100112.97;4973057;28;47184;-94
2022/06/08 15:01:54;;;;;;;;;0.00;0.00;;;;;30.36;88.85;100157.22;4972521;28;46010;-94
2022/06/08 15:04:26;;;;;;;;;2.00;1.00;;;;;29.71;94.23;99966.34;4967904;28;45382;-95
2022/06/08 15:06:52;;;;;;;;;4.00;1.00;;;;;29.23;93.39;99976.63;4971638;28;45622;-94
2022/06/08 15:09:20;;;;;;;;;4.00;2.00;;;;;28.78;95.65;99884.09;4975683;28;46245;-96
2022/06/08 15:11:58;;;;;;;;;0.00;0.00;;;;;28.36;95.96;99835.50;4975496;28;45537;-95
2022/06/08 15:14:38;;;;;;;;;2.00;0.67;;;;;28.11;98.83;99699.00;4972511;28;48680;-96
2022/06/08 15:17:08;;;;;;;;;0.00;0.00;;;;;27.74;100.00;99651.16;4971655;28;45528;-91
2022/06/08 15:19:38;;;;;;;;;0.67;0.00;;;;;27.26;100.00;99613.69;4975412;28;47457;-95
2022/06/08 15:22:06;;;;;;;;;1.67;1.00;;;;;26.77;100.00;99642.56;4974096;28;45354;-96
2022/06/08 15:24:33;;;;;;;;;0.00;0.00;;;;;26.40;100.00;99485.28;4974997;28;45383;-94
2022/06/08 15:27:05;;;;;;;;;1.00;1.00;;;;;26.30;100.00;99472.22;4977716;28;45390;-95
2022/06/08 15:29:31;;;;;;;;;3.00;1.33;;;;;26.16;100.00;99475.47;4968490;28;47536;-94
2022/06/08 15:31:57;;;;;;;;;1.33;1.33;;;;;26.06;100.00;99382.69;4968475;28;51670;-96
2022/06/08 15:34:28;;;;;;;;;2.00;2.00;;;;;25.98;100.00;99434.06;4967773;28;45522;-94
2022/06/08 15:36:55;;;;;;;;;0.33;0.33;;;;;25.85;100.00;99382.63;4970723;28;45569;-96
2022/06/08 15:39:26;;;;;;;;;3.00;1.00;;;;;25.75;100.00;99317.63;4962831;28;46644;-94
2022/06/08 15:41:53;;;;;;;;;3.33;2.00;;;;;25.62;100.00;99304.66;4969688;28;45895;-96
2022/06/08 15:44:22;;;;;;;;;2.00;2.00;;;;;25.37;100.00;99328.94;4974624;28;45784;-96
2022/06/08 15:46:49;;;;;;;;;3.00;1.33;;;;;25.11;100.00;99313.81;4975407;28;45276;-94
2022/06/08 15:49:17;;;;;;;;;4.00;3.33;;;;;24.98;100.00;99332.16;4987379;28;47012;-96
2022/06/08 15:51:45;;;;;;;;;4.33;3.00;;;;;24.83;100.00;99324.69;4981656;28;45783;-92
2022/06/08 15:54:34;;;;;;;;;2.33;2.33;;;;;24.76;100.00;99303.47;4976746;28;45807;-95
2022/06/08 15:57:03;;;;;;;;;2.33;1.33;;;;;24.74;100.00;99288.34;5073229;23;46256;-96
2022/06/08 15:59:33;;;;;;;;;2.00;2.00;;;;;24.63;100.00;99267.28;4956346;28;47173;-95
2022/06/08 16:02:00;;;;;;;;;1.67;1.67;;;;;24.59;100.00;99277.22;4961770;28;46300;-94
2022/06/08 16:04:26;;;;;;;;;3.67;3.00;;;;;24.42;100.00;99259.97;4978528;28;45575;-94
2022/06/08 16:06:51;;;;;;;;;1.33;1.33;;;;;24.17;100.00;99310.88;4957670;28;45670;-94
2022/06/08 16:09:17;;;;;;;;;2.33;2.33;;;;;24.00;100.00;99285.50;4976778;28;45481;-93
2022/06/08 16:11:43;;;;;;;;;6.00;1.67;;;;;23.88;100.00;99276.09;4964867;28;46035;-92
2022/06/08 16:14:09;;;;;;;;;1.33;0.67;;;;;23.71;100.00;99282.03;4975663;28;45544;-92
2022/06/08 16:16:36;;;;;;;;;3.67;2.67;;;;;23.53;100.00;99258.47;4982837;28;45345;-93